^^
Saratoga-Weather Station Historical Data
Daily Summary for April 15, 2021 Units:  Both    English   Metric
Daily Weekly Monthly Yearly Custom
  High: Low: Average:
Temperature: 50.5 °F /  10.3 °C 33.3 °F /  0.7 °C 41.7 °F /  5.4 °C
Dew Point: 34.3 °F /  1.3 °C 28 °F /  -2.2 °C 30.7 °F /  -0.7 °C
Humidity: 87% 42% 67%
Wind Speed: 11mph /  17.7km/h - 2.1mph /  3.3km/h
Wind Gust: 16mph /  25.7km/h - -
Wind- - SE
Pressure: 30.4 in /  1028.1 hPa 30.3 in /  1025.4 hPa -
Precipitation: 0 in /  0.0 mm    
Historical Graphs
 
 
Tabular Data for April 15, 2021
Time Temperature Dew Point Pressure Wind Wind Speed Wind Gust Humidity Rainfall Rate (Hourly) solar
00:00 38.8 °F /  3.8 °C 30.6 °F /  -0.8 °C 30.4in /  1027.8hPa NNE 2mph /  3.2km/h 4mph /  6.4km/h 72% 0in /  0.0mm 0 W/m2
00:05 38.7 °F /  3.7 °C 30.4 °F /  -0.9 °C 30.4in /  1027.8hPa NNW 2.9mph /  4.7km/h 3mph /  4.8km/h 72% 0in /  0.0mm 0 W/m2
00:10 38.7 °F /  3.7 °C 30.7 °F /  -0.7 °C 30.4in /  1027.8hPa NNW 2mph /  3.2km/h 4mph /  6.4km/h 73% 0in /  0.0mm 0 W/m2
00:15 38.5 °F /  3.6 °C 30.2 °F /  -1 °C 30.4in /  1027.8hPa WNW 0.9mph /  1.4km/h 5mph /  8km/h 72% 0in /  0.0mm 0 W/m2
00:20 38.5 °F /  3.6 °C 30.6 °F /  -0.8 °C 30.4in /  1027.8hPa WNW 4mph /  6.4km/h 5mph /  8km/h 73% 0in /  0.0mm 0 W/m2
00:25 38.3 °F /  3.5 °C 30.4 °F /  -0.9 °C 30.4in /  1027.8hPa NNW 0.9mph /  1.4km/h 3mph /  4.8km/h 73% 0in /  0.0mm 0 W/m2
00:30 38.1 °F /  3.4 °C 30.2 °F /  -1 °C 30.4in /  1027.8hPa NNE 2.9mph /  4.7km/h 3mph /  4.8km/h 73% 0in /  0.0mm 0 W/m2
00:35 37.9 °F /  3.3 °C 30 °F /  -1.1 °C 30.4in /  1027.8hPa Calm   3mph /  4.8km/h 73% 0in /  0.0mm 0 W/m2
00:40 37.9 °F /  3.3 °C 30 °F /  -1.1 °C 30.4in /  1027.8hPa NE 0.9mph /  1.4km/h 3mph /  4.8km/h 73% 0in /  0.0mm 0 W/m2
00:45 37.8 °F /  3.2 °C 29.8 °F /  -1.2 °C 30.4in /  1027.8hPa ENE 0.9mph /  1.4km/h 2mph /  3.2km/h 73% 0in /  0.0mm 0 W/m2
00:50 37.6 °F /  3.1 °C 30 °F /  -1.1 °C 30.4in /  1027.8hPa Calm   1mph /  1.6km/h 74% 0in /  0.0mm 0 W/m2
00:55 37.4 °F /  3 °C 29.8 °F /  -1.2 °C 30.4in /  1027.8hPa East 0.9mph /  1.4km/h 2mph /  3.2km/h 74% 0in /  0.0mm 0 W/m2
01:00 37.2 °F /  2.9 °C 29.7 °F /  -1.3 °C 30.4in /  1027.8hPa NNE 2mph /  3.2km/h 2mph /  3.2km/h 74% 0in /  0.0mm 0 W/m2
01:05 37 °F /  2.8 °C 29.5 °F /  -1.4 °C 30.4in /  1027.8hPa ENE 0.9mph /  1.4km/h 1mph /  1.6km/h 74% 0in /  0.0mm 0 W/m2
01:10 37 °F /  2.8 °C 29.8 °F /  -1.2 °C 30.4in /  1027.8hPa SSE 0.9mph /  1.4km/h 3mph /  4.8km/h 75% 0in /  0.0mm 0 W/m2
01:15 36.9 °F /  2.7 °C 29.7 °F /  -1.3 °C 30.4in /  1027.8hPa Calm   1mph /  1.6km/h 75% 0in /  0.0mm 0 W/m2
01:20 36.9 °F /  2.7 °C 29.7 °F /  -1.3 °C 30.4in /  1027.8hPa ENE 0.9mph /  1.4km/h 3mph /  4.8km/h 75% 0in /  0.0mm 0 W/m2
01:25 36.7 °F /  2.6 °C 29.8 °F /  -1.2 °C 30.4in /  1027.8hPa WNW 2mph /  3.2km/h 3mph /  4.8km/h 76% 0in /  0.0mm 0 W/m2
01:30 36.7 °F /  2.6 °C 29.8 °F /  -1.2 °C 30.4in /  1027.8hPa Calm   5mph /  8km/h 76% 0in /  0.0mm 0 W/m2
01:35 36.9 °F /  2.7 °C 30.4 °F /  -0.9 °C 30.4in /  1027.8hPa NW 0.9mph /  1.4km/h 4mph /  6.4km/h 77% 0in /  0.0mm 0 W/m2
01:40 37 °F /  2.8 °C 30.2 °F /  -1 °C 30.4in /  1027.8hPa WNW 2mph /  3.2km/h 4mph /  6.4km/h 76% 0in /  0.0mm 0 W/m2
01:45 37 °F /  2.8 °C 30.2 °F /  -1 °C 30.4in /  1027.8hPa NW 0.9mph /  1.4km/h 4mph /  6.4km/h 76% 0in /  0.0mm 0 W/m2
01:50 37 °F /  2.8 °C 30.2 °F /  -1 °C 30.4in /  1027.8hPa Calm   2mph /  3.2km/h 76% 0in /  0.0mm 0 W/m2
01:55 36.9 °F /  2.7 °C 30 °F /  -1.1 °C 30.4in /  1027.8hPa Calm   4mph /  6.4km/h 76% 0in /  0.0mm 0 W/m2
02:01 36.7 °F /  2.6 °C 29.8 °F /  -1.2 °C 30.4in /  1027.8hPa East 2.9mph /  4.7km/h 4mph /  6.4km/h 76% 0in /  0.0mm 0 W/m2
02:06 36.3 °F /  2.4 °C 29.5 °F /  -1.4 °C 30.4in /  1027.8hPa ENE 2mph /  3.2km/h 2mph /  3.2km/h 76% 0in /  0.0mm 0 W/m2
02:11 36.1 °F /  2.3 °C 29.7 °F /  -1.3 °C 30.4in /  1027.8hPa Calm   2mph /  3.2km/h 77% 0in /  0.0mm 0 W/m2
02:16 36 °F /  2.2 °C 29.8 °F /  -1.2 °C 30.4in /  1027.8hPa SE 2mph /  3.2km/h 4mph /  6.4km/h 78% 0in /  0.0mm 0 W/m2
02:21 35.8 °F /  2.1 °C 29.7 °F /  -1.3 °C 30.4in /  1027.8hPa Calm   2mph /  3.2km/h 78% 0in /  0.0mm 0 W/m2
02:26 35.8 °F /  2.1 °C 29.7 °F /  -1.3 °C 30.3in /  1027.4hPa Calm   2mph /  3.2km/h 78% 0in /  0.0mm 0 W/m2
02:31 35.4 °F /  1.9 °C 29.5 °F /  -1.4 °C 30.3in /  1027.4hPa East 2mph /  3.2km/h 3mph /  4.8km/h 79% 0in /  0.0mm 0 W/m2
02:36 35.4 °F /  1.9 °C 29.5 °F /  -1.4 °C 30.3in /  1027.4hPa Calm   1mph /  1.6km/h 79% 0in /  0.0mm 0 W/m2
02:41 35.2 °F /  1.8 °C 29.3 °F /  -1.5 °C 30.3in /  1027.4hPa Calm   3mph /  4.8km/h 79% 0in /  0.0mm 0 W/m2
02:46 35.4 °F /  1.9 °C 29.8 °F /  -1.2 °C 30.3in /  1027.4hPa ESE 0.9mph /  1.4km/h 1mph /  1.6km/h 80% 0in /  0.0mm 0 W/m2
02:51 35.4 °F /  1.9 °C 29.8 °F /  -1.2 °C 30.3in /  1027.4hPa NNE 0.9mph /  1.4km/h 2mph /  3.2km/h 80% 0in /  0.0mm 0 W/m2
02:56 35.4 °F /  1.9 °C 29.8 °F /  -1.2 °C 30.3in /  1027.4hPa Calm   1mph /  1.6km/h 80% 0in /  0.0mm 0 W/m2
03:01 35.2 °F /  1.8 °C 29.3 °F /  -1.5 °C 30.3in /  1027.4hPa Calm   1mph /  1.6km/h 79% 0in /  0.0mm 0 W/m2
03:06 35.2 °F /  1.8 °C 29.7 °F /  -1.3 °C 30.3in /  1027.4hPa SSE 2mph /  3.2km/h 2mph /  3.2km/h 80% 0in /  0.0mm 0 W/m2
03:11 35.1 °F /  1.7 °C 29.5 °F /  -1.4 °C 30.3in /  1027.4hPa Calm   2mph /  3.2km/h 80% 0in /  0.0mm 0 W/m2
03:16 35.1 °F /  1.7 °C 29.5 °F /  -1.4 °C 30.3in /  1027.4hPa Calm   2mph /  3.2km/h 80% 0in /  0.0mm 0 W/m2
03:21 34.9 °F /  1.6 °C 29.7 °F /  -1.3 °C 30.3in /  1027.4hPa ESE 0.9mph /  1.4km/h 3mph /  4.8km/h 81% 0in /  0.0mm 0 W/m2
03:26 34.9 °F /  1.6 °C 29.7 °F /  -1.3 °C 30.3in /  1027.4hPa Calm   2mph /  3.2km/h 81% 0in /  0.0mm 0 W/m2
03:31 34.7 °F /  1.5 °C 29.5 °F /  -1.4 °C 30.3in /  1027.4hPa Calm   2mph /  3.2km/h 81% 0in /  0.0mm 0 W/m2
03:36 34.5 °F /  1.4 °C 29.3 °F /  -1.5 °C 30.3in /  1027.1hPa Calm   2mph /  3.2km/h 81% 0in /  0.0mm 0 W/m2
03:41 34.5 °F /  1.4 °C 29.7 °F /  -1.3 °C 30.3in /  1027.4hPa Calm   2mph /  3.2km/h 82% 0in /  0.0mm 0 W/m2
03:46 34.5 °F /  1.4 °C 29.7 °F /  -1.3 °C 30.3in /  1027.1hPa ESE 2mph /  3.2km/h 3mph /  4.8km/h 82% 0in /  0.0mm 0 W/m2
03:51 34.3 °F /  1.3 °C 29.5 °F /  -1.4 °C 30.3in /  1027.4hPa Calm   1mph /  1.6km/h 82% 0in /  0.0mm 0 W/m2
03:56 34.3 °F /  1.3 °C 29.5 °F /  -1.4 °C 30.3in /  1027.4hPa Calm   3mph /  4.8km/h 82% 0in /  0.0mm 0 W/m2
04:01 34.3 °F /  1.3 °C 29.5 °F /  -1.4 °C 30.3in /  1027.4hPa ENE 2.9mph /  4.7km/h 4mph /  6.4km/h 82% 0in /  0.0mm 0 W/m2
04:06 34.5 °F /  1.4 °C 29.7 °F /  -1.3 °C 30.3in /  1027.4hPa ENE 0.9mph /  1.4km/h 1mph /  1.6km/h 82% 0in /  0.0mm 0 W/m2
04:11 34.3 °F /  1.3 °C 29.5 °F /  -1.4 °C 30.3in /  1027.4hPa ENE 2mph /  3.2km/h 4mph /  6.4km/h 82% 0in /  0.0mm 0 W/m2
04:16 34.3 °F /  1.3 °C 29.5 °F /  -1.4 °C 30.3in /  1027.4hPa ENE 0.9mph /  1.4km/h 3mph /  4.8km/h 82% 0in /  0.0mm 0 W/m2
04:21 34.3 °F /  1.3 °C 29.5 °F /  -1.4 °C 30.3in /  1027.4hPa ENE 2mph /  3.2km/h 3mph /  4.8km/h 82% 0in /  0.0mm 0 W/m2
04:26 34.3 °F /  1.3 °C 29.5 °F /  -1.4 °C 30.3in /  1027.4hPa East 0.9mph /  1.4km/h 2mph /  3.2km/h 82% 0in /  0.0mm 0 W/m2
04:31 34.2 °F /  1.2 °C 29.3 °F /  -1.5 °C 30.3in /  1027.4hPa Calm   2mph /  3.2km/h 82% 0in /  0.0mm 0 W/m2
04:36 34 °F /  1.1 °C 29.3 °F /  -1.5 °C 30.3in /  1027.4hPa NNE 0.9mph /  1.4km/h 2mph /  3.2km/h 83% 0in /  0.0mm 0 W/m2
04:41 33.8 °F /  1 °C 29.1 °F /  -1.6 °C 30.3in /  1027.4hPa Calm   3mph /  4.8km/h 83% 0in /  0.0mm 0 W/m2
04:46 33.8 °F /  1 °C 29.5 °F /  -1.4 °C 30.3in /  1027.4hPa Calm     84% 0in /  0.0mm 0 W/m2
04:51 33.6 °F /  0.9 °C 29.3 °F /  -1.5 °C 30.3in /  1027.4hPa SSW 0.9mph /  1.4km/h 3mph /  4.8km/h 84% 0in /  0.0mm 0 W/m2
04:56 33.4 °F /  0.8 °C 29.1 °F /  -1.6 °C 30.3in /  1027.4hPa Calm   1mph /  1.6km/h 84% 0in /  0.0mm 0 W/m2
05:01 33.4 °F /  0.8 °C 29.1 °F /  -1.6 °C 30.3in /  1027.4hPa SSW 0.9mph /  1.4km/h 2mph /  3.2km/h 84% 0in /  0.0mm 0 W/m2
05:06 33.3 °F /  0.7 °C 28.9 °F /  -1.7 °C 30.3in /  1027.4hPa Calm   2mph /  3.2km/h 84% 0in /  0.0mm 0 W/m2
05:11 33.3 °F /  0.7 °C 29.3 °F /  -1.5 °C 30.3in /  1027.4hPa Calm   1mph /  1.6km/h 85% 0in /  0.0mm 0 W/m2
05:16 33.3 °F /  0.7 °C 29.5 °F /  -1.4 °C 30.3in /  1027.4hPa SE 0.9mph /  1.4km/h 2mph /  3.2km/h 86% 0in /  0.0mm 0 W/m2
05:22 33.3 °F /  0.7 °C 29.5 °F /  -1.4 °C 30.3in /  1027.4hPa Calm   1mph /  1.6km/h 86% 0in /  0.0mm 0 W/m2
05:27 33.3 °F /  0.7 °C 29.5 °F /  -1.4 °C 30.3in /  1027.4hPa Calm   2mph /  3.2km/h 86% 0in /  0.0mm 0 W/m2
05:32 33.3 °F /  0.7 °C 29.5 °F /  -1.4 °C 30.3in /  1027.4hPa Calm     86% 0in /  0.0mm 0 W/m2
05:37 33.3 °F /  0.7 °C 29.5 °F /  -1.4 °C 30.3in /  1027.4hPa Calm   1mph /  1.6km/h 86% 0in /  0.0mm 0 W/m2
05:42 33.3 °F /  0.7 °C 29.5 °F /  -1.4 °C 30.3in /  1027.4hPa SE 0.9mph /  1.4km/h 2mph /  3.2km/h 86% 0in /  0.0mm 0 W/m2
05:47 33.4 °F /  0.8 °C 29.7 °F /  -1.3 °C 30.3in /  1027.4hPa ESE 0.9mph /  1.4km/h 1mph /  1.6km/h 86% 0in /  0.0mm 0 W/m2
05:52 33.6 °F /  0.9 °C 30.2 °F /  -1 °C 30.3in /  1027.4hPa Calm     87% 0in /  0.0mm 0 W/m2
05:57 33.6 °F /  0.9 °C 29.8 °F /  -1.2 °C 30.3in /  1027.4hPa WSW 2mph /  3.2km/h 2mph /  3.2km/h 86% 0in /  0.0mm 0 W/m2
06:02 34 °F /  1.1 °C 30.2 °F /  -1 °C 30.3in /  1027.4hPa WSW 0.9mph /  1.4km/h 2mph /  3.2km/h 86% 0in /  0.0mm 0 W/m2
06:07 34 °F /  1.1 °C 30.2 °F /  -1 °C 30.3in /  1027.4hPa WSW 2.9mph /  4.7km/h 3mph /  4.8km/h 86% 0in /  0.0mm 0 W/m2
06:12 34.3 °F /  1.3 °C 30.6 °F /  -0.8 °C 30.3in /  1027.4hPa Calm   1mph /  1.6km/h 86% 0in /  0.0mm 0 W/m2
06:17 34.3 °F /  1.3 °C 30.4 °F /  -0.9 °C 30.3in /  1027.4hPa Calm   2mph /  3.2km/h 85% 0in /  0.0mm 0 W/m2
06:22 34.5 °F /  1.4 °C 30.6 °F /  -0.8 °C 30.3in /  1027.4hPa SW 0.9mph /  1.4km/h 2mph /  3.2km/h 85% 0in /  0.0mm 0 W/m2
06:27 34.3 °F /  1.3 °C 30.4 °F /  -0.9 °C 30.3in /  1027.4hPa Calm   1mph /  1.6km/h 85% 0in /  0.0mm 0 W/m2
06:32 34.3 °F /  1.3 °C 30.4 °F /  -0.9 °C 30.3in /  1027.4hPa Calm   2mph /  3.2km/h 85% 0in /  0.0mm 0 W/m2
06:37 34.3 °F /  1.3 °C 30 °F /  -1.1 °C 30.3in /  1027.4hPa Calm   2mph /  3.2km/h 84% 0in /  0.0mm 0 W/m2
06:42 34.3 °F /  1.3 °C 30 °F /  -1.1 °C 30.3in /  1027.4hPa Calm   4mph /  6.4km/h 84% 0in /  0.0mm 0 W/m2
06:47 34.3 °F /  1.3 °C 30.4 °F /  -0.9 °C 30.3in /  1027.4hPa Calm   1mph /  1.6km/h 85% 0in /  0.0mm 5 W/m2
06:52 34.3 °F /  1.3 °C 30.4 °F /  -0.9 °C 30.3in /  1027.4hPa West 0.9mph /  1.4km/h 2mph /  3.2km/h 85% 0in /  0.0mm 7 W/m2
06:57 34.3 °F /  1.3 °C 30.4 °F /  -0.9 °C 30.3in /  1027.4hPa WNW 0.9mph /  1.4km/h 1mph /  1.6km/h 85% 0in /  0.0mm 11 W/m2
07:02 34.3 °F /  1.3 °C 30 °F /  -1.1 °C 30.4in /  1027.8hPa Calm   2mph /  3.2km/h 84% 0in /  0.0mm 12 W/m2
07:07 34.2 °F /  1.2 °C 30.2 °F /  -1 °C 30.3in /  1027.4hPa NNE 0.9mph /  1.4km/h 4mph /  6.4km/h 85% 0in /  0.0mm 16 W/m2
07:12 34.2 °F /  1.2 °C 30.2 °F /  -1 °C 30.4in /  1027.8hPa NNW 0.9mph /  1.4km/h 2mph /  3.2km/h 85% 0in /  0.0mm 18 W/m2
07:17 34.2 °F /  1.2 °C 30.2 °F /  -1 °C 30.4in /  1027.8hPa North 2mph /  3.2km/h 3mph /  4.8km/h 85% 0in /  0.0mm 21 W/m2
07:22 34.3 °F /  1.3 °C 30.4 °F /  -0.9 °C 30.4in /  1027.8hPa ESE 0.9mph /  1.4km/h 3mph /  4.8km/h 85% 0in /  0.0mm 25 W/m2
07:27 34.3 °F /  1.3 °C 30.4 °F /  -0.9 °C 30.4in /  1027.8hPa North 0.9mph /  1.4km/h 2mph /  3.2km/h 85% 0in /  0.0mm 26 W/m2
07:32 34.3 °F /  1.3 °C 30.4 °F /  -0.9 °C 30.4in /  1027.8hPa NNE 2mph /  3.2km/h 3mph /  4.8km/h 85% 0in /  0.0mm 28 W/m2
07:37 34.3 °F /  1.3 °C 30.4 °F /  -0.9 °C 30.4in /  1027.8hPa NE 0.9mph /  1.4km/h 4mph /  6.4km/h 85% 0in /  0.0mm 32 W/m2
07:42 34.3 °F /  1.3 °C 30.4 °F /  -0.9 °C 30.4in /  1027.8hPa Calm   1mph /  1.6km/h 85% 0in /  0.0mm 33 W/m2
07:47 34.5 °F /  1.4 °C 30.6 °F /  -0.8 °C 30.4in /  1028.1hPa Calm   3mph /  4.8km/h 85% 0in /  0.0mm 37 W/m2
07:52 34.5 °F /  1.4 °C 30.6 °F /  -0.8 °C 30.4in /  1028.1hPa Calm   4mph /  6.4km/h 85% 0in /  0.0mm 40 W/m2
07:57 34.9 °F /  1.6 °C 30.9 °F /  -0.6 °C 30.4in /  1028.1hPa Calm   4mph /  6.4km/h 85% 0in /  0.0mm 42 W/m2
08:02 34.9 °F /  1.6 °C 30.9 °F /  -0.6 °C 30.4in /  1028.1hPa ENE 0.9mph /  1.4km/h 3mph /  4.8km/h 85% 0in /  0.0mm 44 W/m2
08:07 35.1 °F /  1.7 °C 30.7 °F /  -0.7 °C 30.4in /  1028.1hPa NNW 6mph /  9.7km/h 6mph /  9.7km/h 84% 0in /  0.0mm 46 W/m2
08:12 35.2 °F /  1.8 °C 30.9 °F /  -0.6 °C 30.4in /  1028.1hPa West 2mph /  3.2km/h 3mph /  4.8km/h 84% 0in /  0.0mm 56 W/m2
08:17 35.6 °F /  2 °C 30.9 °F /  -0.6 °C 30.4in /  1027.8hPa North 0.9mph /  1.4km/h 3mph /  4.8km/h 83% 0in /  0.0mm 109 W/m2
08:22 35.8 °F /  2.1 °C 31.1 °F /  -0.5 °C 30.4in /  1028.1hPa NE 4mph /  6.4km/h 7mph /  11.3km/h 83% 0in /  0.0mm 153 W/m2
08:27 36.1 °F /  2.3 °C 31.5 °F /  -0.3 °C 30.4in /  1028.1hPa WNW 2mph /  3.2km/h 4mph /  6.4km/h 83% 0in /  0.0mm 174 W/m2
08:32 36.1 °F /  2.3 °C 31.5 °F /  -0.3 °C 30.4in /  1028.1hPa North 2mph /  3.2km/h 7mph /  11.3km/h 83% 0in /  0.0mm 192 W/m2
08:37 36.5 °F /  2.5 °C 31.5 °F /  -0.3 °C 30.4in /  1028.1hPa NE 0.9mph /  1.4km/h 4mph /  6.4km/h 82% 0in /  0.0mm 209 W/m2
08:42 36.9 °F /  2.7 °C 31.8 °F /  -0.1 °C 30.4in /  1028.1hPa SE 2mph /  3.2km/h 3mph /  4.8km/h 82% 0in /  0.0mm 223 W/m2
08:47 37 °F /  2.8 °C 31.8 °F /  -0.1 °C 30.4in /  1028.1hPa East 4mph /  6.4km/h 8mph /  12.9km/h 81% 0in /  0.0mm 241 W/m2
08:52 37 °F /  2.8 °C 31.8 °F /  -0.1 °C 30.4in /  1028.1hPa East 0.9mph /  1.4km/h 6mph /  9.7km/h 81% 0in /  0.0mm 255 W/m2
08:57 37.2 °F /  2.9 °C 32 °F /  0 °C 30.4in /  1028.1hPa SW 0.9mph /  1.4km/h 5mph /  8km/h 81% 0in /  0.0mm 267 W/m2
09:02 37.4 °F /  3 °C 32.2 °F /  0.1 °C 30.4in /  1028.1hPa NNW 2.9mph /  4.7km/h 3mph /  4.8km/h 81% 0in /  0.0mm 290 W/m2
09:07 37.8 °F /  3.2 °C 32.5 °F /  0.3 °C 30.4in /  1028.1hPa NW 2mph /  3.2km/h 4mph /  6.4km/h 81% 0in /  0.0mm 297 W/m2
09:12 37.9 °F /  3.3 °C 32.4 °F /  0.2 °C 30.4in /  1028.1hPa ESE 2.9mph /  4.7km/h 6mph /  9.7km/h 80% 0in /  0.0mm 276 W/m2
09:17 38.3 °F /  3.5 °C 32.7 °F /  0.4 °C 30.4in /  1028.1hPa WNW 2.9mph /  4.7km/h 4mph /  6.4km/h 80% 0in /  0.0mm 76 W/m2
09:22 38.7 °F /  3.7 °C 32.7 °F /  0.4 °C 30.4in /  1028.1hPa East 6.9mph /  11.1km/h 7mph /  11.3km/h 79% 0in /  0.0mm 109 W/m2
09:27 39 °F /  3.9 °C 33.1 °F /  0.6 °C 30.4in /  1028.1hPa North 2mph /  3.2km/h 8mph /  12.9km/h 79% 0in /  0.0mm 348 W/m2
09:32 39.6 °F /  4.2 °C 33.6 °F /  0.9 °C 30.4in /  1028.1hPa Calm   3mph /  4.8km/h 79% 0in /  0.0mm 366 W/m2
09:37 39.9 °F /  4.4 °C 33.3 °F /  0.7 °C 30.4in /  1028.1hPa NE 2mph /  3.2km/h 8mph /  12.9km/h 77% 0in /  0.0mm 381 W/m2
09:42 40.3 °F /  4.6 °C 33.3 °F /  0.7 °C 30.4in /  1028.1hPa ENE 4mph /  6.4km/h 6mph /  9.7km/h 76% 0in /  0.0mm 403 W/m2
09:47 40.5 °F /  4.7 °C 33.1 °F /  0.6 °C 30.4in /  1028.1hPa ENE 4mph /  6.4km/h 7mph /  11.3km/h 75% 0in /  0.0mm 422 W/m2
09:52 40.8 °F /  4.9 °C 33.4 °F /  0.8 °C 30.4in /  1028.1hPa ESE 2.9mph /  4.7km/h 5mph /  8km/h 75% 0in /  0.0mm 434 W/m2
09:57 41.2 °F /  5.1 °C 33.4 °F /  0.8 °C 30.4in /  1028.1hPa SE 2mph /  3.2km/h 2mph /  3.2km/h 74% 0in /  0.0mm 448 W/m2
10:02 41.4 °F /  5.2 °C 33.1 °F /  0.6 °C 30.4in /  1027.8hPa ESE 2mph /  3.2km/h 4mph /  6.4km/h 72% 0in /  0.0mm 466 W/m2
10:07 41.9 °F /  5.5 °C 33.8 °F /  1 °C 30.4in /  1027.8hPa ESE 2mph /  3.2km/h 7mph /  11.3km/h 73% 0in /  0.0mm 476 W/m2
10:12 42.3 °F /  5.7 °C 33.8 °F /  1 °C 30.4in /  1028.1hPa ENE 0.9mph /  1.4km/h 5mph /  8km/h 72% 0in /  0.0mm 487 W/m2
10:17 42.6 °F /  5.9 °C 34.2 °F /  1.2 °C 30.4in /  1028.1hPa East 4mph /  6.4km/h 4mph /  6.4km/h 72% 0in /  0.0mm 503 W/m2
10:22 43 °F /  6.1 °C 33.4 °F /  0.8 °C 30.4in /  1028.1hPa East 0.9mph /  1.4km/h 2mph /  3.2km/h 69% 0in /  0.0mm 526 W/m2
10:27 43 °F /  6.1 °C 33.8 °F /  1 °C 30.4in /  1028.1hPa East 0.9mph /  1.4km/h 2mph /  3.2km/h 70% 0in /  0.0mm 552 W/m2
10:32 43.2 °F /  6.2 °C 34 °F /  1.1 °C 30.4in /  1028.1hPa SE 4mph /  6.4km/h 9mph /  14.5km/h 70% 0in /  0.0mm 548 W/m2
10:37 43.2 °F /  6.2 °C 33.6 °F /  0.9 °C 30.4in /  1028.1hPa East 2.9mph /  4.7km/h 4mph /  6.4km/h 69% 0in /  0.0mm 555 W/m2
10:42 43.3 °F /  6.3 °C 33.4 °F /  0.8 °C 30.4in /  1028.1hPa East 2.9mph /  4.7km/h 7mph /  11.3km/h 68% 0in /  0.0mm 580 W/m2
10:47 43.7 °F /  6.5 °C 34.2 °F /  1.2 °C 30.4in /  1028.1hPa NNE 4mph /  6.4km/h 10mph /  16.1km/h 69% 0in /  0.0mm 615 W/m2
10:52 43.9 °F /  6.6 °C 33.6 °F /  0.9 °C 30.4in /  1028.1hPa ENE 2.9mph /  4.7km/h 9mph /  14.5km/h 67% 0in /  0.0mm 605 W/m2
10:57 43.9 °F /  6.6 °C 33.6 °F /  0.9 °C 30.4in /  1028.1hPa NNW 2.9mph /  4.7km/h 7mph /  11.3km/h 67% 0in /  0.0mm 622 W/m2
11:02 44.2 °F /  6.8 °C 34.3 °F /  1.3 °C 30.4in /  1028.1hPa East 2mph /  3.2km/h 8mph /  12.9km/h 68% 0in /  0.0mm 664 W/m2
11:07 44.8 °F /  7.1 °C 33.8 °F /  1 °C 30.4in /  1028.1hPa ENE 2mph /  3.2km/h 7mph /  11.3km/h 65% 0in /  0.0mm 626 W/m2
11:12 45 °F /  7.2 °C 33.4 °F /  0.8 °C 30.4in /  1027.8hPa SSE 6mph /  9.7km/h 7mph /  11.3km/h 64% 0in /  0.0mm 670 W/m2
11:17 45.1 °F /  7.3 °C 33.6 °F /  0.9 °C 30.4in /  1027.8hPa North 0.9mph /  1.4km/h 9mph /  14.5km/h 64% 0in /  0.0mm 670 W/m2
11:22 45.1 °F /  7.3 °C 33.6 °F /  0.9 °C 30.4in /  1027.8hPa NE 2.9mph /  4.7km/h 4mph /  6.4km/h 64% 0in /  0.0mm 740 W/m2
11:27 45 °F /  7.2 °C 33.4 °F /  0.8 °C 30.4in /  1027.8hPa NNE 0.9mph /  1.4km/h 7mph /  11.3km/h 64% 0in /  0.0mm 705 W/m2
11:32 45.1 °F /  7.3 °C 33.6 °F /  0.9 °C 30.4in /  1027.8hPa North 0.9mph /  1.4km/h 3mph /  4.8km/h 64% 0in /  0.0mm 724 W/m2
11:37 45.3 °F /  7.4 °C 32.7 °F /  0.4 °C 30.4in /  1027.8hPa NE 2.9mph /  4.7km/h 4mph /  6.4km/h 61% 0in /  0.0mm 735 W/m2
11:42 45.5 °F /  7.5 °C 33.3 °F /  0.7 °C 30.4in /  1027.8hPa ENE 0.9mph /  1.4km/h 8mph /  12.9km/h 62% 0in /  0.0mm 737 W/m2
11:47 45.7 °F /  7.6 °C 33.4 °F /  0.8 °C 30.4in /  1027.8hPa ESE 6mph /  9.7km/h 8mph /  12.9km/h 62% 0in /  0.0mm 768 W/m2
11:52 46.2 °F /  7.9 °C 33.1 °F /  0.6 °C 30.4in /  1027.8hPa East 6mph /  9.7km/h 6mph /  9.7km/h 60% 0in /  0.0mm 798 W/m2
11:57 46.2 °F /  7.9 °C 32.2 °F /  0.1 °C 30.4in /  1027.8hPa South 0.9mph /  1.4km/h 4mph /  6.4km/h 58% 0in /  0.0mm 805 W/m2
12:02 46.8 °F /  8.2 °C 32.7 °F /  0.4 °C 30.4in /  1027.8hPa East 0.9mph /  1.4km/h 8mph /  12.9km/h 58% 0in /  0.0mm 877 W/m2
12:07 47.1 °F /  8.4 °C 32.2 °F /  0.1 °C 30.4in /  1027.8hPa NE 8.9mph /  14.3km/h 10mph /  16.1km/h 56% 0in /  0.0mm 171 W/m2
12:12 46.8 °F /  8.2 °C 32.7 °F /  0.4 °C 30.4in /  1027.8hPa Calm   4mph /  6.4km/h 58% 0in /  0.0mm 227 W/m2
12:17 46.4 °F /  8 °C 33.3 °F /  0.7 °C 30.4in /  1027.8hPa SSE 0.9mph /  1.4km/h 5mph /  8km/h 60% 0in /  0.0mm 330 W/m2
12:22 46.8 °F /  8.2 °C 33.3 °F /  0.7 °C 30.4in /  1027.8hPa East 2mph /  3.2km/h 5mph /  8km/h 59% 0in /  0.0mm 807 W/m2
12:27 47.5 °F /  8.6 °C 33.1 °F /  0.6 °C 30.4in /  1027.8hPa ESE 2mph /  3.2km/h 6mph /  9.7km/h 57% 0in /  0.0mm 912 W/m2
12:32 47.7 °F /  8.7 °C 33.3 °F /  0.7 °C 30.3in /  1027.4hPa East 0.9mph /  1.4km/h 4mph /  6.4km/h 57% 0in /  0.0mm 905 W/m2
12:37 48 °F /  8.9 °C 32.5 °F /  0.3 °C 30.3in /  1027.4hPa SE 4mph /  6.4km/h 8mph /  12.9km/h 55% 0in /  0.0mm 200 W/m2
12:42 48 °F /  8.9 °C 32.2 °F /  0.1 °C 30.3in /  1027.4hPa East 4.9mph /  7.9km/h 9mph /  14.5km/h 54% 0in /  0.0mm 893 W/m2
12:47 48.4 °F /  9.1 °C 33.4 °F /  0.8 °C 30.3in /  1027.4hPa NNW 2.9mph /  4.7km/h 6mph /  9.7km/h 56% 0in /  0.0mm 942 W/m2
12:52 48.6 °F /  9.2 °C 34 °F /  1.1 °C 30.3in /  1027.4hPa NW 4.9mph /  7.9km/h 7mph /  11.3km/h 57% 0in /  0.0mm 965 W/m2
12:57 48.6 °F /  9.2 °C 31.3 °F /  -0.4 °C 30.3in /  1027.4hPa ESE 6mph /  9.7km/h 11mph /  17.7km/h 51% 0in /  0.0mm 214 W/m2
13:02 47.7 °F /  8.7 °C 30.9 °F /  -0.6 °C 30.3in /  1027.4hPa NE 6mph /  9.7km/h 11mph /  17.7km/h 52% 0in /  0.0mm 265 W/m2
13:07 47.3 °F /  8.5 °C 31.1 °F /  -0.5 °C 30.3in /  1027.4hPa NE 2.9mph /  4.7km/h 10mph /  16.1km/h 53% 0in /  0.0mm 288 W/m2
13:12 47.7 °F /  8.7 °C 31.3 °F /  -0.4 °C 30.3in /  1027.4hPa East 4mph /  6.4km/h 9mph /  14.5km/h 53% 0in /  0.0mm 933 W/m2
13:17 47.8 °F /  8.8 °C 31.5 °F /  -0.3 °C 30.3in /  1027.4hPa NNE 2.9mph /  4.7km/h 10mph /  16.1km/h 53% 0in /  0.0mm 258 W/m2
13:22 47.7 °F /  8.7 °C 31.3 °F /  -0.4 °C 30.3in /  1027.4hPa ESE 10.1mph /  16.3km/h 10mph /  16.1km/h 53% 0in /  0.0mm 220 W/m2
13:27 47.1 °F /  8.4 °C 31.3 °F /  -0.4 °C 30.3in /  1027.4hPa SE 2mph /  3.2km/h 8mph /  12.9km/h 54% 0in /  0.0mm 258 W/m2
13:32 47.7 °F /  8.7 °C 32.4 °F /  0.2 °C 30.3in /  1027.1hPa NNW 0.9mph /  1.4km/h 10mph /  16.1km/h 55% 0in /  0.0mm 875 W/m2
13:37 48.6 °F /  9.2 °C 33.6 °F /  0.9 °C 30.3in /  1027.1hPa WSW 2.9mph /  4.7km/h 4mph /  6.4km/h 56% 0in /  0.0mm 886 W/m2
13:42 48.9 °F /  9.4 °C 31.1 °F /  -0.5 °C 30.3in /  1027.1hPa SW 2.9mph /  4.7km/h 3mph /  4.8km/h 50% 0in /  0.0mm 944 W/m2
13:47 49.3 °F /  9.6 °C 32 °F /  0 °C 30.3in /  1027.1hPa NNW 0.9mph /  1.4km/h 3mph /  4.8km/h 51% 0in /  0.0mm 234 W/m2
13:52 48.7 °F /  9.3 °C 30.9 °F /  -0.6 °C 30.3in /  1027.1hPa ENE 2.9mph /  4.7km/h 8mph /  12.9km/h 50% 0in /  0.0mm 301 W/m2
13:57 48.9 °F /  9.4 °C 31.1 °F /  -0.5 °C 30.3in /  1027.1hPa ENE 2mph /  3.2km/h 5mph /  8km/h 50% 0in /  0.0mm 1049 W/m2
14:02 49.3 °F /  9.6 °C 31.5 °F /  -0.3 °C 30.3in /  1027.1hPa North 2mph /  3.2km/h 6mph /  9.7km/h 50% 0in /  0.0mm 1046 W/m2
14:08 49.3 °F /  9.6 °C 30.4 °F /  -0.9 °C 30.3in /  1027.1hPa NNW 2mph /  3.2km/h 6mph /  9.7km/h 48% 0in /  0.0mm 320 W/m2
14:13 49.1 °F /  9.5 °C 32.2 °F /  0.1 °C 30.3in /  1027.1hPa NNW 6mph /  9.7km/h 8mph /  12.9km/h 52% 0in /  0.0mm 276 W/m2
14:18 48.7 °F /  9.3 °C 31.5 °F /  -0.3 °C 30.3in /  1027.1hPa NNW 4mph /  6.4km/h 5mph /  8km/h 51% 0in /  0.0mm 287 W/m2
14:23 48.4 °F /  9.1 °C 31.1 °F /  -0.5 °C 30.3in /  1027.1hPa East 2.9mph /  4.7km/h 6mph /  9.7km/h 51% 0in /  0.0mm 183 W/m2
14:28 47.8 °F /  8.8 °C 31.5 °F /  -0.3 °C 30.3in /  1027.4hPa North 2mph /  3.2km/h 12mph /  19.3km/h 53% 0in /  0.0mm 114 W/m2
14:33 46.8 °F /  8.2 °C 29.7 °F /  -1.3 °C 30.3in /  1027.4hPa ENE 8.1mph /  13km/h 9mph /  14.5km/h 51% 0in /  0.0mm 149 W/m2
14:38 45.9 °F /  7.7 °C 28.8 °F /  -1.8 °C 30.3in /  1027.1hPa SW 0.9mph /  1.4km/h 2mph /  3.2km/h 51% 0in /  0.0mm 241 W/m2
14:43 45.7 °F /  7.6 °C 28.6 °F /  -1.9 °C 30.3in /  1027.1hPa WNW 2mph /  3.2km/h 3mph /  4.8km/h 51% 0in /  0.0mm 364 W/m2
14:48 46 °F /  7.8 °C 28.4 °F /  -2 °C 30.3in /  1027.1hPa ESE 2mph /  3.2km/h 3mph /  4.8km/h 50% 0in /  0.0mm 640 W/m2
14:53 46.8 °F /  8.2 °C 29.7 °F /  -1.3 °C 30.3in /  1026.8hPa NW 2mph /  3.2km/h 2mph /  3.2km/h 51% 0in /  0.0mm 663 W/m2
14:58 47.3 °F /  8.5 °C 29.1 °F /  -1.6 °C 30.3in /  1026.8hPa WSW 4mph /  6.4km/h 4mph /  6.4km/h 49% 0in /  0.0mm 842 W/m2
15:03 47.8 °F /  8.8 °C 29.7 °F /  -1.3 °C 30.3in /  1026.8hPa SW 0.9mph /  1.4km/h 2mph /  3.2km/h 49% 0in /  0.0mm 807 W/m2
15:08 48.7 °F /  9.3 °C 30.4 °F /  -0.9 °C 30.3in /  1026.8hPa East 2mph /  3.2km/h 9mph /  14.5km/h 49% 0in /  0.0mm 214 W/m2
15:13 49.5 °F /  9.7 °C 29.5 °F /  -1.4 °C 30.3in /  1026.4hPa ESE 2mph /  3.2km/h 8mph /  12.9km/h 46% 0in /  0.0mm 974 W/m2
15:18 49.8 °F /  9.9 °C 30.4 °F /  -0.9 °C 30.3in /  1026.4hPa ENE 2.9mph /  4.7km/h 11mph /  17.7km/h 47% 0in /  0.0mm 1007 W/m2
15:23 50.2 °F /  10.1 °C 31.3 °F /  -0.4 °C 30.3in /  1026.8hPa NE 6mph /  9.7km/h 13mph /  20.9km/h 48% 0in /  0.0mm 230 W/m2
15:28 49.1 °F /  9.5 °C 28.8 °F /  -1.8 °C 30.3in /  1026.4hPa SE 2.9mph /  4.7km/h 7mph /  11.3km/h 45% 0in /  0.0mm 207 W/m2
15:33 48.6 °F /  9.2 °C 28.2 °F /  -2.1 °C 30.3in /  1026.4hPa ESE 2.9mph /  4.7km/h 9mph /  14.5km/h 45% 0in /  0.0mm 211 W/m2
15:38 48.2 °F /  9 °C 28.9 °F /  -1.7 °C 30.3in /  1026.4hPa NE 4mph /  6.4km/h 5mph /  8km/h 47% 0in /  0.0mm 220 W/m2
15:43 48 °F /  8.9 °C 29.3 °F /  -1.5 °C 30.3in /  1026.4hPa ENE 4mph /  6.4km/h 6mph /  9.7km/h 48% 0in /  0.0mm 214 W/m2
15:48 47.8 °F /  8.8 °C 28.6 °F /  -1.9 °C 30.3in /  1026.4hPa Calm   6mph /  9.7km/h 47% 0in /  0.0mm 223 W/m2
15:53 48 °F /  8.9 °C 29.3 °F /  -1.5 °C 30.3in /  1026.4hPa ENE 6mph /  9.7km/h 6mph /  9.7km/h 48% 0in /  0.0mm 802 W/m2
15:58 48.7 °F /  9.3 °C 29.5 °F /  -1.4 °C 30.3in /  1026.4hPa SE 0.9mph /  1.4km/h 9mph /  14.5km/h 47% 0in /  0.0mm 770 W/m2
16:03 49.6 °F /  9.8 °C 28.6 °F /  -1.9 °C 30.3in /  1026.1hPa Calm   11mph /  17.7km/h 44% 0in /  0.0mm 707 W/m2
16:08 50.2 °F /  10.1 °C 28 °F /  -2.2 °C 30.3in /  1026.1hPa NE 6.9mph /  11.1km/h 7mph /  11.3km/h 42% 0in /  0.0mm 775 W/m2
16:13 50.4 °F /  10.2 °C 28.8 °F /  -1.8 °C 30.3in /  1026.1hPa East 4.9mph /  7.9km/h 6mph /  9.7km/h 43% 0in /  0.0mm 849 W/m2
16:18 50.5 °F /  10.3 °C 28.9 °F /  -1.7 °C 30.3in /  1026.1hPa ENE 8.9mph /  14.3km/h 9mph /  14.5km/h 43% 0in /  0.0mm 163 W/m2
16:23 50 °F /  10 °C 29.5 °F /  -1.4 °C 30.3in /  1026.1hPa NE 0.9mph /  1.4km/h 6mph /  9.7km/h 45% 0in /  0.0mm 72 W/m2
16:28 49.3 °F /  9.6 °C 28.8 °F /  -1.8 °C 30.3in /  1026.1hPa NNE 2mph /  3.2km/h 9mph /  14.5km/h 45% 0in /  0.0mm 49 W/m2
16:33 48.4 °F /  9.1 °C 30 °F /  -1.1 °C 30.3in /  1026.1hPa ESE 4mph /  6.4km/h 8mph /  12.9km/h 49% 0in /  0.0mm 76 W/m2
16:38 47.7 °F /  8.7 °C 30 °F /  -1.1 °C 30.3in /  1026.1hPa ESE 2.9mph /  4.7km/h 6mph /  9.7km/h 50% 0in /  0.0mm 109 W/m2
16:43 47.5 °F /  8.6 °C 30.2 °F /  -1 °C 30.3in /  1026.1hPa East 2mph /  3.2km/h 4mph /  6.4km/h 51% 0in /  0.0mm 151 W/m2
16:48 47.5 °F /  8.6 °C 30.2 °F /  -1 °C 30.3in /  1025.7hPa East 2.9mph /  4.7km/h 4mph /  6.4km/h 51% 0in /  0.0mm 190 W/m2
16:53 47.5 °F /  8.6 °C 30.2 °F /  -1 °C 30.3in /  1025.7hPa Calm     51% 0in /  0.0mm 213 W/m2
16:58 47.7 °F /  8.7 °C 30.4 °F /  -0.9 °C 30.3in /  1025.7hPa ENE 2mph /  3.2km/h 5mph /  8km/h 51% 0in /  0.0mm 494 W/m2
17:03 48 °F /  8.9 °C 30.2 °F /  -1 °C 30.3in /  1025.7hPa NW 0.9mph /  1.4km/h 4mph /  6.4km/h 50% 0in /  0.0mm 295 W/m2
17:08 48.4 °F /  9.1 °C 31.1 °F /  -0.5 °C 30.3in /  1025.7hPa NW 2mph /  3.2km/h 3mph /  4.8km/h 51% 0in /  0.0mm 480 W/m2
17:13 48.7 °F /  9.3 °C 30.9 °F /  -0.6 °C 30.3in /  1025.7hPa North 2.9mph /  4.7km/h 5mph /  8km/h 50% 0in /  0.0mm 355 W/m2
17:18 49.3 °F /  9.6 °C 30.4 °F /  -0.9 °C 30.3in /  1025.7hPa NNE 0.9mph /  1.4km/h 2mph /  3.2km/h 48% 0in /  0.0mm 288 W/m2
17:23 49.6 °F /  9.8 °C 30.2 °F /  -1 °C 30.3in /  1025.7hPa NNW 4.9mph /  7.9km/h 7mph /  11.3km/h 47% 0in /  0.0mm 613 W/m2
17:28 49.6 °F /  9.8 °C 30.2 °F /  -1 °C 30.3in /  1025.7hPa NE 8.9mph /  14.3km/h 16mph /  25.7km/h 47% 0in /  0.0mm 90 W/m2
17:33 49.1 °F /  9.5 °C 29.7 °F /  -1.3 °C 30.3in /  1025.7hPa NE 2mph /  3.2km/h 10mph /  16.1km/h 47% 0in /  0.0mm 81 W/m2
17:38 48.4 °F /  9.1 °C 29.1 °F /  -1.6 °C 30.3in /  1025.7hPa ESE 2mph /  3.2km/h 16mph /  25.7km/h 47% 0in /  0.0mm 100 W/m2
17:43 47.8 °F /  8.8 °C 29.1 °F /  -1.6 °C 30.3in /  1025.7hPa East 2.9mph /  4.7km/h 8mph /  12.9km/h 48% 0in /  0.0mm 118 W/m2
17:48 47.8 °F /  8.8 °C 29.1 °F /  -1.6 °C 30.3in /  1025.7hPa ENE 9mph /  14.5km/h 9mph /  14.5km/h 48% 0in /  0.0mm 188 W/m2
17:53 48.2 °F /  9 °C 30 °F /  -1.1 °C 30.3in /  1025.7hPa ESE 11mph /  17.7km/h 11mph /  17.7km/h 49% 0in /  0.0mm 464 W/m2
17:58 48.7 °F /  9.3 °C 29.8 °F /  -1.2 °C 30.3in /  1025.7hPa South 2.9mph /  4.7km/h 10mph /  16.1km/h 48% 0in /  0.0mm 287 W/m2
18:03 48.6 °F /  9.2 °C 31.8 °F /  -0.1 °C 30.3in /  1025.7hPa ESE 4mph /  6.4km/h 12mph /  19.3km/h 52% 0in /  0.0mm 302 W/m2
18:08 48 °F /  8.9 °C 31.6 °F /  -0.2 °C 30.3in /  1025.7hPa East 0.9mph /  1.4km/h 9mph /  14.5km/h 53% 0in /  0.0mm 388 W/m2
18:13 47.8 °F /  8.8 °C 31.5 °F /  -0.3 °C 30.3in /  1025.7hPa East 0.9mph /  1.4km/h 4mph /  6.4km/h 53% 0in /  0.0mm 338 W/m2
18:18 48 °F /  8.9 °C 30.7 °F /  -0.7 °C 30.3in /  1025.7hPa ENE 2mph /  3.2km/h 2mph /  3.2km/h 51% 0in /  0.0mm 135 W/m2
18:23 48 °F /  8.9 °C 30.7 °F /  -0.7 °C 30.3in /  1025.4hPa NNW 2.9mph /  4.7km/h 3mph /  4.8km/h 51% 0in /  0.0mm 76 W/m2
18:28 47.7 °F /  8.7 °C 30 °F /  -1.1 °C 30.3in /  1025.4hPa Calm   5mph /  8km/h 50% 0in /  0.0mm 56 W/m2
18:33 47.1 °F /  8.4 °C 29.8 °F /  -1.2 °C 30.3in /  1025.4hPa ENE 2.9mph /  4.7km/h 3mph /  4.8km/h 51% 0in /  0.0mm 70 W/m2
18:38 47.3 °F /  8.5 °C 30 °F /  -1.1 °C 30.3in /  1025.4hPa NE 0.9mph /  1.4km/h 3mph /  4.8km/h 51% 0in /  0.0mm 260 W/m2
18:43 47.7 °F /  8.7 °C 30.9 °F /  -0.6 °C 30.3in /  1025.4hPa Calm   4mph /  6.4km/h 52% 0in /  0.0mm 269 W/m2
18:48 48 °F /  8.9 °C 30.2 °F /  -1 °C 30.3in /  1025.7hPa ENE 6.9mph /  11.1km/h 7mph /  11.3km/h 50% 0in /  0.0mm 260 W/m2
18:53 48 °F /  8.9 °C 30.7 °F /  -0.7 °C 30.3in /  1025.4hPa ESE 2.9mph /  4.7km/h 7mph /  11.3km/h 51% 0in /  0.0mm 260 W/m2
18:58 48 °F /  8.9 °C 29.8 °F /  -1.2 °C 30.3in /  1025.4hPa ENE 4.9mph /  7.9km/h 9mph /  14.5km/h 49% 0in /  0.0mm 246 W/m2
19:03 48 °F /  8.9 °C 29.8 °F /  -1.2 °C 30.3in /  1025.4hPa ESE 2.9mph /  4.7km/h 7mph /  11.3km/h 49% 0in /  0.0mm 172 W/m2
19:08 48 °F /  8.9 °C 30.2 °F /  -1 °C 30.3in /  1025.7hPa NE 0.9mph /  1.4km/h 7mph /  11.3km/h 50% 0in /  0.0mm 153 W/m2
19:13 47.7 °F /  8.7 °C 30 °F /  -1.1 °C 30.3in /  1025.7hPa East 6.9mph /  11.1km/h 11mph /  17.7km/h 50% 0in /  0.0mm 120 W/m2
19:18 47.5 °F /  8.6 °C 30.2 °F /  -1 °C 30.3in /  1025.7hPa ENE 2mph /  3.2km/h 5mph /  8km/h 51% 0in /  0.0mm 128 W/m2
19:23 47.3 °F /  8.5 °C 31.1 °F /  -0.5 °C 30.3in /  1025.7hPa ESE 0.9mph /  1.4km/h 3mph /  4.8km/h 53% 0in /  0.0mm 91 W/m2
19:28 46.9 °F /  8.3 °C 31.1 °F /  -0.5 °C 30.3in /  1025.7hPa ENE 4.9mph /  7.9km/h 6mph /  9.7km/h 54% 0in /  0.0mm 74 W/m2
19:33 46.6 °F /  8.1 °C 31.3 °F /  -0.4 °C 30.3in /  1025.4hPa ESE 4mph /  6.4km/h 6mph /  9.7km/h 55% 0in /  0.0mm 69 W/m2
19:38 46.6 °F /  8.1 °C 31.6 °F /  -0.2 °C 30.3in /  1025.4hPa NE 2mph /  3.2km/h 3mph /  4.8km/h 56% 0in /  0.0mm 91 W/m2
19:43 46.6 °F /  8.1 °C 31.6 °F /  -0.2 °C 30.3in /  1025.4hPa NE 4.9mph /  7.9km/h 7mph /  11.3km/h 56% 0in /  0.0mm 88 W/m2
19:48 46.8 °F /  8.2 °C 32.4 °F /  0.2 °C 30.3in /  1025.7hPa ENE 2mph /  3.2km/h 4mph /  6.4km/h 57% 0in /  0.0mm 69 W/m2
19:53 46.8 °F /  8.2 °C 32.4 °F /  0.2 °C 30.3in /  1025.7hPa ESE 2.9mph /  4.7km/h 9mph /  14.5km/h 57% 0in /  0.0mm 40 W/m2
19:58 46.2 °F /  7.9 °C 32.2 °F /  0.1 °C 30.3in /  1025.7hPa NNE 0.9mph /  1.4km/h 5mph /  8km/h 58% 0in /  0.0mm 35 W/m2
20:03 45.9 °F /  7.7 °C 32.7 °F /  0.4 °C 30.3in /  1025.7hPa WSW 2.9mph /  4.7km/h 5mph /  8km/h 60% 0in /  0.0mm 30 W/m2
20:08 45.7 °F /  7.6 °C 33.1 °F /  0.6 °C 30.3in /  1025.7hPa NNW 0.9mph /  1.4km/h 8mph /  12.9km/h 61% 0in /  0.0mm 23 W/m2
20:13 45.3 °F /  7.4 °C 32.2 °F /  0.1 °C 30.3in /  1025.7hPa ENE 2.9mph /  4.7km/h 4mph /  6.4km/h 60% 0in /  0.0mm 16 W/m2
20:18 45.1 °F /  7.3 °C 32 °F /  0 °C 30.3in /  1025.7hPa NNW 2mph /  3.2km/h 8mph /  12.9km/h 60% 0in /  0.0mm 12 W/m2
20:23 45 °F /  7.2 °C 32 °F /  0 °C 30.3in /  1025.7hPa NNW 2mph /  3.2km/h 4mph /  6.4km/h 60% 0in /  0.0mm 9 W/m2
20:28 44.8 °F /  7.1 °C 31.3 °F /  -0.4 °C 30.3in /  1025.7hPa East 0.9mph /  1.4km/h 8mph /  12.9km/h 59% 0in /  0.0mm 5 W/m2
20:33 44.6 °F /  7 °C 30.7 °F /  -0.7 °C 30.3in /  1025.7hPa Calm   4mph /  6.4km/h 58% 0in /  0.0mm 0 W/m2
20:38 44.4 °F /  6.9 °C 30.6 °F /  -0.8 °C 30.3in /  1025.7hPa NW 2mph /  3.2km/h 4mph /  6.4km/h 58% 0in /  0.0mm 0 W/m2
20:43 44.4 °F /  6.9 °C 30.6 °F /  -0.8 °C 30.3in /  1026.1hPa West 0.9mph /  1.4km/h 1mph /  1.6km/h 58% 0in /  0.0mm 0 W/m2
20:48 44.2 °F /  6.8 °C 30.4 °F /  -0.9 °C 30.3in /  1026.1hPa ENE 2mph /  3.2km/h 3mph /  4.8km/h 58% 0in /  0.0mm 0 W/m2
20:53 44.1 °F /  6.7 °C 30.2 °F /  -1 °C 30.3in /  1026.1hPa ENE 2mph /  3.2km/h 3mph /  4.8km/h 58% 0in /  0.0mm 0 W/m2
20:58 43.9 °F /  6.6 °C 30.6 °F /  -0.8 °C 30.3in /  1026.1hPa NE 2mph /  3.2km/h 2mph /  3.2km/h 59% 0in /  0.0mm 0 W/m2
21:03 43.7 °F /  6.5 °C 30.7 °F /  -0.7 °C 30.3in /  1026.1hPa East 2mph /  3.2km/h 7mph /  11.3km/h 60% 0in /  0.0mm 0 W/m2
21:08 43.5 °F /  6.4 °C 30.9 °F /  -0.6 °C 30.3in /  1026.1hPa East 2.9mph /  4.7km/h 4mph /  6.4km/h 61% 0in /  0.0mm 0 W/m2
21:13 43.3 °F /  6.3 °C 31.3 °F /  -0.4 °C 30.3in /  1026.1hPa East 2.9mph /  4.7km/h 3mph /  4.8km/h 62% 0in /  0.0mm 0 W/m2
21:18 43.3 °F /  6.3 °C 31.3 °F /  -0.4 °C 30.3in /  1026.4hPa ENE 0.9mph /  1.4km/h 3mph /  4.8km/h 62% 0in /  0.0mm 0 W/m2
21:23 43.2 °F /  6.2 °C 31.5 °F /  -0.3 °C 30.3in /  1026.4hPa ENE 2mph /  3.2km/h 5mph /  8km/h 63% 0in /  0.0mm 0 W/m2
21:28 43 °F /  6.1 °C 31.3 °F /  -0.4 °C 30.3in /  1026.4hPa NE 2mph /  3.2km/h 2mph /  3.2km/h 63% 0in /  0.0mm 0 W/m2
21:33 43 °F /  6.1 °C 31.6 °F /  -0.2 °C 30.3in /  1026.4hPa East 0.9mph /  1.4km/h 4mph /  6.4km/h 64% 0in /  0.0mm 0 W/m2
Juneau County Weather
Compliments of Weather Underground - 2 mb